Time;durP1;ratioP1;P1;durP2;ratioP2;P2;SDS_P1;SDS_P2;PMS_P1;PMS_P2;Temp;Humidity;BMP_temperature;BMP_pressure;BME280_temperature;BME280_humidity;BME280_pressure;Samples;Min_cycle;Max_cycle;Signal;HPM_P1;HPM_P2
2024/03/18 00:02:02;;;;;;;2.28;0.40;;;;;;;-2.27;100.00;102433.38;5023292;28;20036;-76
2024/03/18 00:04:27;;;;;;;0.32;0.28;;;;;;;-2.27;100.00;102442.13;5024461;28;20029;-75
2024/03/18 00:06:53;;;;;;;1.33;0.30;;;;;;;-2.25;100.00;102442.06;5040631;28;20033;-76
2024/03/18 00:09:18;;;;;;;0.93;0.30;;;;;;;-2.66;100.00;102374.63;5041780;28;20021;-75
2024/03/18 00:11:44;;;;;;;0.95;0.38;;;;;;;-2.51;100.00;102395.91;5024181;28;20026;-75
2024/03/18 00:14:09;;;;;;;1.77;0.50;;;;;;;-2.27;100.00;102431.59;5040962;28;20041;-75
2024/03/18 00:16:35;;;;;;;2.15;0.40;;;;;;;-2.53;100.00;102390.69;5023930;28;20033;-75
2024/03/18 00:19:01;;;;;;;1.90;0.30;;;;;;;-2.32;100.00;102416.91;5024689;28;20162;-75
2024/03/18 00:21:26;;;;;;;1.38;0.45;;;;;;;-2.21;100.00;102441.00;5041809;28;20026;-76
2024/03/18 00:23:51;;;;;;;2.28;0.50;;;;;;;-2.21;100.00;102433.09;5041863;28;20143;-75
2024/03/18 00:26:17;;;;;;;1.55;0.35;;;;;;;-2.16;100.00;102441.59;5040482;28;20095;-75
2024/03/18 00:28:43;;;;;;;2.80;0.50;;;;;;;-2.21;100.00;102438.34;5024358;28;20415;-75
2024/03/18 00:31:10;;;;;;;1.25;0.50;;;;;;;-2.21;100.00;102433.09;5041940;28;20025;-75
2024/03/18 00:33:35;;;;;;;0.93;0.40;;;;;;;-2.18;100.00;102427.66;5040558;28;20034;-75
2024/03/18 00:36:02;;;;;;;2.15;0.40;;;;;;;-2.19;100.00;102424.13;5041977;28;20412;-76
2024/03/18 00:38:27;;;;;;;1.48;0.38;;;;;;;-2.16;100.00;102421.34;5040930;28;20045;-76
2024/03/18 00:43:37;;;;;;;0.70;0.50;;;;;;;-2.15;100.00;102411.69;5041934;28;20048;-75
2024/03/18 00:46:03;;;;;;;0.98;0.50;;;;;;;-2.10;100.00;102404.38;5040154;28;20439;-75
2024/03/18 00:48:29;;;;;;;1.23;0.55;;;;;;;-2.15;100.00;102406.41;5040488;28;20045;-75
2024/03/18 00:50:55;;;;;;;1.05;0.50;;;;;;;-2.08;100.00;102407.81;5040932;28;20052;-75
2024/03/18 00:53:21;;;;;;;1.17;0.38;;;;;;;-2.03;100.00;102407.56;5041770;28;20512;-76
2024/03/18 00:55:47;;;;;;;2.08;0.47;;;;;;;-2.08;100.00;102402.53;5023547;28;20049;-75
2024/03/18 00:58:13;;;;;;;1.27;0.40;;;;;;;-2.10;100.00;102401.75;5040446;28;20337;-77
2024/03/18 01:00:39;;;;;;;1.27;0.50;;;;;;;-2.04;100.00;102405.84;5040167;28;20124;-76
2024/03/18 01:03:05;;;;;;;1.63;0.38;;;;;;;-2.06;100.00;102397.16;5039529;28;20033;-74
2024/03/18 01:05:31;;;;;;;2.33;0.68;;;;;;;-2.08;100.00;102393.75;5022864;28;20049;-76
2024/03/18 01:07:57;;;;;;;1.35;0.40;;;;;;;-2.34;100.00;102348.47;5041870;28;20091;-76
2024/03/18 01:10:22;;;;;;;2.58;0.60;;;;;;;-2.25;100.00;102363.84;5024912;28;20036;-75
2024/03/18 01:12:47;;;;;;;2.13;0.60;;;;;;;-2.26;100.00;102362.09;5041907;28;20037;-75
2024/03/18 01:15:14;;;;;;;0.90;0.30;;;;;;;-2.09;100.00;102392.88;5037372;28;20033;-75
2024/03/18 01:17:40;;;;;;;2.83;0.50;;;;;;;-2.06;100.00;102389.25;5039627;28;20064;-75
2024/03/18 01:20:09;;;;;;;1.40;0.50;;;;;;;-2.02;100.00;102390.78;5058896;28;20029;-75
2024/03/18 01:22:35;;;;;;;1.90;0.40;;;;;;;-2.09;100.00;102384.13;5057544;28;20502;-75
2024/03/18 01:25:02;;;;;;;0.82;0.50;;;;;;;-2.05;100.00;102391.81;5041495;28;20044;-75
2024/03/18 01:27:28;;;;;;;0.80;0.35;;;;;;;-2.09;100.00;102384.97;5059674;28;20029;-75
2024/03/18 01:29:55;;;;;;;1.88;0.50;;;;;;;-2.00;100.00;102389.78;5056546;28;20029;-74
2024/03/18 01:32:22;;;;;;;0.93;0.40;;;;;;;-2.22;100.00;102350.50;5057702;28;20029;-75
2024/03/18 01:34:48;;;;;;;2.95;0.50;;;;;;;-1.99;100.00;102393.28;5057695;28;20033;-77
2024/03/18 01:37:14;;;;;;;1.17;0.40;;;;;;;-1.88;100.00;102387.47;5059222;28;20033;-75
2024/03/18 01:39:39;;;;;;;1.00;0.40;;;;;;;-1.91;100.00;102399.88;5060139;28;20047;-74
2024/03/18 01:42:05;;;;;;;2.40;0.50;;;;;;;-1.95;100.00;102400.97;5059064;28;20025;-76
2024/03/18 01:44:30;;;;;;;1.02;0.25;;;;;;;-1.99;100.00;102390.63;5041889;28;20097;-74
2024/03/18 01:46:56;;;;;;;0.73;0.30;;;;;;;-2.02;100.00;102389.03;5058619;28;20537;-75
2024/03/18 01:49:21;;;;;;;1.38;0.43;;;;;;;-2.06;100.00;102371.63;5058270;28;20067;-75
2024/03/18 01:51:47;;;;;;;0.85;0.30;;;;;;;-1.94;100.00;102378.91;5042023;28;20029;-75
2024/03/18 01:54:13;;;;;;;1.90;0.40;;;;;;;-1.98;100.00;102387.09;5060479;28;20025;-77
2024/03/18 01:56:38;;;;;;;1.42;0.60;;;;;;;-1.98;100.00;102374.75;5075368;28;20025;-75
2024/03/18 01:59:07;;;;;;;2.00;0.45;;;;;;;-2.01;100.00;102374.06;5075486;28;20384;-77
2024/03/18 02:01:33;;;;;;;2.22;0.60;;;;;;;-2.64;100.00;102279.72;5059986;28;20118;-75
2024/03/18 02:04:09;;;;;;;0.55;0.20;;;;;;;-2.07;100.00;102366.44;5074730;28;20101;-76
2024/03/18 02:06:37;;;;;;;1.23;0.40;;;;;;;-2.01;100.00;102367.00;5057667;28;20036;-76
2024/03/18 02:09:03;;;;;;;5.47;0.70;;;;;;;-2.16;100.00;102362.50;5059553;28;20044;-74
2024/03/18 02:11:28;;;;;;;1.80;0.28;;;;;;;-2.67;100.00;102282.50;5059139;28;20037;-75
2024/03/18 02:13:54;;;;;;;1.13;0.40;;;;;;;-2.15;100.00;102370.34;5058716;28;20021;-74
2024/03/18 02:16:20;;;;;;;0.95;0.47;;;;;;;-2.15;100.00;102374.75;5058452;28;20028;-75
2024/03/18 02:18:46;;;;;;;3.20;0.40;;;;;;;-2.18;100.00;102369.66;5075217;28;20025;-75
2024/03/18 02:21:11;;;;;;;1.08;0.35;;;;;;;-2.41;100.00;102332.09;5059716;28;20025;-74
2024/03/18 02:23:37;;;;;;;0.93;0.40;;;;;;;-2.15;100.00;102359.78;5058431;28;20044;-74
2024/03/18 02:26:02;;;;;;;0.52;0.28;;;;;;;-2.11;100.00;102371.03;5046035;28;20131;-75
2024/03/18 02:28:28;;;;;;;1.45;0.35;;;;;;;-2.38;100.00;102342.50;5046064;28;20032;-74
2024/03/18 02:30:54;;;;;;;1.77;0.32;;;;;;;-2.23;100.00;102359.31;5046110;28;20036;-74
2024/03/18 02:33:19;;;;;;;1.10;0.28;;;;;;;-2.16;100.00;102358.06;5062412;28;20512;-75
2024/03/18 02:35:45;;;;;;;1.77;0.50;;;;;;;-2.35;100.00;102325.69;5046090;28;20033;-75
2024/03/18 02:38:10;;;;;;;1.73;0.30;;;;;;;-2.28;100.00;102327.06;5046099;28;20039;-75
2024/03/18 02:40:35;;;;;;;1.90;0.50;;;;;;;-2.44;100.00;102310.31;5045516;28;20025;-75
2024/03/18 02:43:01;;;;;;;2.67;0.30;;;;;;;-2.25;100.00;102360.31;5063791;28;20036;-76
2024/03/18 02:45:26;;;;;;;0.90;0.40;;;;;;;-2.37;100.00;102346.84;5087816;28;20040;-76
2024/03/18 02:47:53;;;;;;;2.08;0.30;;;;;;;-2.52;100.00;102317.75;5065397;28;20032;-75
2024/03/18 02:50:18;;;;;;;0.55;0.20;;;;;;;-2.44;100.00;102332.25;5061801;28;20033;-75
2024/03/18 02:52:46;;;;;;;0.57;0.25;;;;;;;-2.42;100.00;102346.22;5045953;28;20037;-75
2024/03/18 02:55:13;;;;;;;1.40;0.32;;;;;;;-2.33;100.00;102341.41;5062577;28;20064;-75
2024/03/18 02:57:38;;;;;;;1.80;0.47;;;;;;;-2.35;100.00;102346.78;5062131;28;20082;-74
2024/03/18 03:00:11;;;;;;;3.03;0.32;;;;;;;-2.38;100.00;102339.88;5063371;28;20045;-75
2024/03/18 03:02:36;;;;;;;2.22;0.35;;;;;;;-2.39;100.00;102339.94;5078690;28;20487;-75
2024/03/18 03:05:02;;;;;;;1.00;0.30;;;;;;;-2.40;100.00;102331.16;5077871;28;20043;-75
2024/03/18 03:07:27;;;;;;;0.63;0.40;;;;;;;-2.40;100.00;102333.81;5078750;28;20032;-75
2024/03/18 03:09:53;;;;;;;1.02;0.30;;;;;;;-2.47;100.00;102342.09;5063706;28;20112;-75
2024/03/18 03:12:19;;;;;;;2.00;0.30;;;;;;;-2.66;100.00;102316.66;5028683;28;20057;-75
2024/03/18 03:14:45;;;;;;;1.80;0.60;;;;;;;-2.62;100.00;102318.25;5062177;28;20453;-75
2024/03/18 03:17:10;;;;;;;1.08;0.30;;;;;;;-2.55;100.00;102336.34;5028801;28;20024;-75
2024/03/18 03:19:35;;;;;;;0.70;0.40;;;;;;;-2.58;100.00;102333.88;5029859;28;20025;-75
2024/03/18 03:22:01;;;;;;;2.30;0.38;;;;;;;-2.49;100.00;102336.91;5079846;28;20080;-75
2024/03/18 03:24:27;;;;;;;1.13;0.30;;;;;;;-2.56;100.00;102339.94;5061033;28;20086;-74
2024/03/18 03:26:52;;;;;;;1.80;0.30;;;;;;;-2.59;100.00;102327.75;5078253;28;20492;-74
2024/03/18 03:29:18;;;;;;;2.08;0.50;;;;;;;-2.68;100.00;102322.94;5080791;28;20120;-76
2024/03/18 03:31:43;;;;;;;0.50;0.20;;;;;;;-2.67;100.00;102335.19;5067430;28;20095;-75
2024/03/18 03:34:09;;;;;;;1.52;0.28;;;;;;;-2.85;100.00;102313.22;5068713;28;20024;-76
2024/03/18 03:36:39;;;;;;;2.42;0.30;;;;;;;-2.69;100.00;102332.63;5070569;28;20067;-75
2024/03/18 03:39:04;;;;;;;1.10;0.30;;;;;;;-2.71;100.00;102333.66;5064957;28;20020;-74
2024/03/18 03:41:30;;;;;;;0.88;0.30;;;;;;;-2.95;100.00;102296.16;5065696;28;20033;-74
2024/03/18 03:43:56;;;;;;;0.50;0.20;;;;;;;-2.83;100.00;102322.75;5047880;28;20029;-75
2024/03/18 03:46:21;;;;;;;2.80;0.50;;;;;;;-2.88;100.00;102313.38;5064664;28;20058;-74
2024/03/18 03:48:48;;;;;;;0.82;0.20;;;;;;;-2.88;100.00;102316.88;5080328;28;20033;-74
2024/03/18 03:51:13;;;;;;;1.17;0.25;;;;;;;-2.94;100.00;102311.91;5063297;28;20024;-73
2024/03/18 03:53:39;;;;;;;1.58;0.30;;;;;;;-2.90;100.00;102317.88;5059489;28;20039;-74
2024/03/18 03:56:04;;;;;;;0.55;0.20;;;;;;;-2.88;100.00;102308.09;5059172;28;20424;-74
2024/03/18 03:58:32;;;;;;;0.80;0.20;;;;;;;-2.99;100.00;102313.91;5061068;28;20029;-74
2024/03/18 04:00:58;;;;;;;1.38;0.25;;;;;;;-2.96;100.00;102318.19;5043170;28;20052;-74
2024/03/18 04:03:24;;;;;;;1.90;0.50;;;;;;;-3.51;100.00;102221.63;5059929;28;20047;-75
2024/03/18 04:05:54;;;;;;;0.57;0.20;;;;;;;-2.91;100.00;102310.91;5060254;28;20033;-74
2024/03/18 04:08:19;;;;;;;1.85;0.50;;;;;;;-3.00;100.00;102311.34;5061489;28;20021;-74
2024/03/18 04:10:45;;;;;;;2.30;0.35;;;;;;;-2.98;100.00;102310.38;5043580;28;20039;-74
2024/03/18 04:13:10;;;;;;;0.98;0.30;;;;;;;-3.10;100.00;102280.19;5076836;28;20135;-74
2024/03/18 04:15:36;;;;;;;0.45;0.20;;;;;;;-3.02;100.00;102297.41;5061127;28;20039;-74
2024/03/18 04:18:03;;;;;;;1.35;0.30;;;;;;;-2.94;100.00;102316.34;5026290;28;20060;-74
2024/03/18 04:20:29;;;;;;;2.10;0.20;;;;;;;-2.97;100.00;102319.97;5075872;28;20033;-74
2024/03/18 04:22:56;;;;;;;1.15;0.30;;;;;;;-3.16;100.00;102287.53;5058765;28;20046;-74
2024/03/18 04:25:23;;;;;;;0.40;0.20;;;;;;;-2.96;100.00;102319.03;5042330;28;20391;-74
2024/03/18 04:27:48;;;;;;;1.63;0.22;;;;;;;-3.09;100.00;102300.31;5075906;28;20037;-74
2024/03/18 04:30:19;;;;;;;2.47;0.40;;;;;;;-3.02;100.00;102316.69;5062191;28;20048;-74
2024/03/18 04:32:47;;;;;;;0.98;0.30;;;;;;;-3.00;100.00;102316.63;5077198;28;20025;-74
2024/03/18 04:35:13;;;;;;;3.28;0.28;;;;;;;-3.17;100.00;102286.69;5059940;28;20025;-74
2024/03/18 04:37:45;;;;;;;0.50;0.20;;;;;;;-3.06;100.00;102309.88;5059512;28;20032;-74
2024/03/18 04:40:12;;;;;;;0.30;0.20;;;;;;;-3.17;100.00;102299.00;5075613;28;20033;-74
2024/03/18 04:42:40;;;;;;;1.00;0.35;;;;;;;-3.13;100.00;102305.81;5059197;28;20533;-73
2024/03/18 04:45:07;;;;;;;0.57;0.20;;;;;;;-3.31;100.00;102279.47;5044313;28;20041;-74
2024/03/18 04:47:41;;;;;;;2.35;0.30;;;;;;;-3.28;100.00;102285.50;5045811;28;20068;-76
2024/03/18 04:50:08;;;;;;;1.70;0.50;;;;;;;-3.17;100.00;102299.84;5038374;28;20026;-74
2024/03/18 04:52:36;;;;;;;1.80;0.30;;;;;;;-3.18;100.00;102284.13;5038661;28;20052;-74
2024/03/18 04:55:03;;;;;;;1.35;0.30;;;;;;;-3.17;100.00;102301.66;5037319;28;20033;-75
2024/03/18 04:57:29;;;;;;;0.75;0.20;;;;;;;-3.45;100.00;102252.09;5039102;28;20101;-74
2024/03/18 04:59:54;;;;;;;1.75;0.40;;;;;;;-3.21;100.00;102297.44;5037508;28;20080;-74
2024/03/18 05:02:20;;;;;;;2.92;0.47;;;;;;;-3.22;100.00;102293.94;5039264;28;20069;-74
2024/03/18 05:04:45;;;;;;;1.30;0.40;;;;;;;-3.29;100.00;102278.53;5053901;28;20029;-74
2024/03/18 05:07:11;;;;;;;1.15;0.40;;;;;;;-3.18;100.00;102292.00;5057168;28;20039;-79
2024/03/18 05:09:37;;;;;;;2.65;1.02;;;;;;;-3.21;100.00;102294.78;5056992;28;20039;-71
2024/03/18 05:12:03;;;;;;;3.25;0.43;;;;;;;-3.31;100.00;102263.66;5055942;28;20033;-73
2024/03/18 05:14:28;;;;;;;0.85;0.30;;;;;;;-3.25;100.00;102288.81;5058426;28;20025;-71
2024/03/18 05:16:54;;;;;;;4.82;0.60;;;;;;;-3.25;100.00;102282.72;5058008;28;20502;-75
2024/03/18 05:19:19;;;;;;;3.20;0.20;;;;;;;-3.43;100.00;102244.97;5040090;28;20064;-72
2024/03/18 05:21:44;;;;;;;1.80;0.22;;;;;;;-3.42;100.00;102252.78;5058490;28;20476;-73
2024/03/18 05:24:10;;;;;;;2.50;0.32;;;;;;;-3.42;100.00;102244.88;5058622;28;20044;-74
2024/03/18 05:26:35;;;;;;;1.25;0.20;;;;;;;-3.21;100.00;102294.78;5056824;28;20037;-73
2024/03/18 05:29:00;;;;;;;2.28;0.73;;;;;;;-3.29;100.00;102296.97;5056188;28;20048;-72
2024/03/18 05:31:30;;;;;;;2.15;0.50;;;;;;;-3.31;100.00;102303.16;5058370;28;20483;-75
2024/03/18 05:33:56;;;;;;;4.05;0.50;;;;;;;-3.46;100.00;102274.91;5048094;28;20031;-71
2024/03/18 05:36:22;;;;;;;3.08;0.38;;;;;;;-3.40;100.00;102281.69;5041288;28;20512;-75
2024/03/18 05:38:47;;;;;;;1.52;0.40;;;;;;;-3.28;100.00;102307.41;5035406;28;20048;-75
2024/03/18 05:41:13;;;;;;;2.97;0.35;;;;;;;-3.56;100.00;102284.16;5035656;28;20140;-74
2024/03/18 05:43:38;;;;;;;2.58;0.50;;;;;;;-3.32;100.00;102309.31;5041086;28;20025;-73
2024/03/18 05:46:03;;;;;;;5.38;0.55;;;;;;;-3.31;100.00;102308.41;5034578;28;20036;-73
2024/03/18 05:48:29;;;;;;;3.00;0.40;;;;;;;-3.35;100.00;102306.84;5034899;28;20112;-72
2024/03/18 05:50:55;;;;;;;3.30;0.30;;;;;;;-3.26;100.00;102309.97;5038577;28;20052;-72
2024/03/18 05:53:20;;;;;;;1.17;0.22;;;;;;;-3.36;100.00;102278.81;5060718;28;20084;-73
2024/03/18 05:55:46;;;;;;;1.92;0.20;;;;;;;-3.34;100.00;102302.44;5063861;28;20047;-72
2024/03/18 05:58:11;;;;;;;0.75;0.30;;;;;;;-3.24;100.00;102297.59;5051135;28;20075;-73
2024/03/18 06:00:37;;;;;;;2.05;0.40;;;;;;;-3.36;100.00;102260.41;5035347;28;20083;-73
2024/03/18 06:03:05;;;;;;;3.88;0.60;;;;;;;-3.11;100.00;102294.31;5037977;28;20113;-73
2024/03/18 06:05:30;;;;;;;0.82;0.30;;;;;;;-3.06;100.00;102296.69;5024099;28;20128;-73
2024/03/18 06:07:56;;;;;;;2.20;0.40;;;;;;;-2.93;100.00;102292.53;5054574;28;20548;-73
2024/03/18 06:10:21;;;;;;;5.70;0.50;;;;;;;-3.04;100.00;102268.53;5039648;28;20033;-74
2024/03/18 06:12:47;;;;;;;2.05;0.30;;;;;;;-2.89;100.00;102299.34;5045164;28;20459;-73
2024/03/18 06:15:13;;;;;;;2.65;0.38;;;;;;;-2.81;100.00;102284.94;5029453;28;20128;-74
2024/03/18 06:17:38;;;;;;;2.03;0.30;;;;;;;-2.70;100.00;102296.66;5055370;28;20507;-75
2024/03/18 06:20:04;;;;;;;3.22;0.57;;;;;;;-2.65;100.00;102302.56;5011422;28;20085;-74
2024/03/18 06:22:37;;;;;;;2.42;0.30;;;;;;;-2.91;100.00;102276.69;5058366;28;20023;-75
2024/03/18 06:27:53;;;;;;;2.22;0.40;;;;;;;-2.79;100.00;102265.50;5057803;28;20036;-75
2024/03/18 06:30:19;;;;;;;1.73;0.47;;;;;;;-2.66;100.00;102273.66;5058230;28;20025;-73
2024/03/18 06:32:44;;;;;;;4.22;0.52;;;;;;;-2.82;100.00;102281.47;5058276;28;20048;-75
2024/03/18 06:35:10;;;;;;;4.28;0.30;;;;;;;-2.79;100.00;102248.84;5040995;28;20029;-75
2024/03/18 06:37:36;;;;;;;1.20;0.28;;;;;;;-2.52;100.00;102291.41;5040746;28;20033;-73
2024/03/18 06:40:07;;;;;;;1.40;0.30;;;;;;;-2.66;100.00;102268.38;5049507;28;20037;-75
2024/03/18 06:42:34;;;;;;;1.05;0.30;;;;;;;-2.47;100.00;102286.75;5047391;28;20021;-74
2024/03/18 06:44:59;;;;;;;2.65;0.38;;;;;;;-2.61;100.00;102292.72;5052996;28;20026;-74
2024/03/18 06:47:28;;;;;;;2.50;0.75;;;;;;;-2.56;100.00;102274.03;5066859;28;20044;-74
2024/03/18 06:49:53;;;;;;;1.05;0.20;;;;;;;-2.49;100.00;102267.53;5040524;28;20029;-74
2024/03/18 06:52:20;;;;;;;1.35;0.20;;;;;;;-2.59;100.00;102243.41;5056680;28;20096;-75
2024/03/18 06:54:45;;;;;;;1.27;0.43;;;;;;;-3.01;100.00;102154.25;5057404;28;20260;-77
2024/03/18 06:57:11;;;;;;;1.20;0.30;;;;;;;-2.61;100.00;102271.66;5057730;28;20036;-75
2024/03/18 06:59:37;;;;;;;2.08;0.40;;;;;;;-2.66;100.00;102250.78;5028877;28;20503;-74
2024/03/18 07:02:03;;;;;;;4.60;0.50;;;;;;;-2.39;100.00;102272.22;5041521;28;20033;-74
2024/03/18 07:04:30;;;;;;;2.38;0.50;;;;;;;-2.48;100.00;102271.88;5037107;28;20060;-75
2024/03/18 07:06:55;;;;;;;1.35;0.45;;;;;;;-2.49;100.00;102276.28;5036755;28;20013;-75
2024/03/18 07:09:21;;;;;;;3.83;0.40;;;;;;;-2.66;100.00;102266.59;5040889;28;20128;-75
2024/03/18 07:11:46;;;;;;;1.17;0.30;;;;;;;-2.74;100.00;102233.69;5049998;28;20033;-75
2024/03/18 07:14:14;;;;;;;4.22;0.40;;;;;;;-2.40;100.00;102267.06;5052807;28;20033;-74
2024/03/18 07:16:39;;;;;;;2.05;0.40;;;;;;;-2.33;100.00;102284.25;5051569;28;20052;-74
2024/03/18 07:19:05;;;;;;;7.47;0.43;;;;;;;-2.14;100.00;102266.56;5051742;28;20041;-74
2024/03/18 07:21:30;;;;;;;2.13;0.40;;;;;;;-2.15;100.00;102253.47;5043913;28;20032;-75
2024/03/18 07:23:58;;;;;;;1.23;0.30;;;;;;;-2.02;100.00;102270.34;5062071;28;20067;-73
2024/03/18 07:26:23;;;;;;;0.77;0.35;;;;;;;-1.92;100.00;102268.91;5061651;28;20037;-73
2024/03/18 07:28:49;;;;;;;3.42;0.38;;;;;;;-1.87;100.00;102275.72;5055511;28;20032;-72
2024/03/18 07:31:14;;;;;;;1.80;0.50;;;;;;;-1.91;100.00;102275.03;5022996;28;20408;-74
2024/03/18 07:33:45;;;;;;;7.47;0.50;;;;;;;-1.58;100.00;102280.25;5028458;28;20064;-74
2024/03/18 07:36:11;;;;;;;3.60;0.65;;;;;;;-1.56;100.00;102277.53;5027745;28;20039;-75
2024/03/18 07:38:36;;;;;;;3.17;0.35;;;;;;;-1.85;100.00;102229.84;5061274;28;20100;-74
2024/03/18 07:41:02;;;;;;;1.30;0.30;;;;;;;-1.68;100.00;102269.34;5059446;28;20083;-74
2024/03/18 07:43:27;;;;;;;3.72;0.50;;;;;;;-1.66;100.00;102277.19;5042227;28;20403;-78
2024/03/18 07:45:52;;;;;;;2.83;0.43;;;;;;;-1.85;100.00;102271.19;5041788;28;20037;-74
2024/03/18 07:48:18;;;;;;;2.10;0.55;;;;;;;-1.90;100.00;102267.03;5058055;28;20043;-73
2024/03/18 07:50:43;;;;;;;0.85;0.32;;;;;;;-1.70;100.00;102260.66;5059755;28;20033;-72
2024/03/18 07:53:08;;;;;;;3.80;0.40;;;;;;;-1.62;100.00;102281.38;5040324;28;20029;-74
2024/03/18 07:55:34;;;;;;;3.42;0.40;;;;;;;-1.68;100.00;102285.19;5039514;28;20024;-74
2024/03/18 07:57:59;;;;;;;3.05;0.38;;;;;;;-1.44;100.00;102282.13;5073760;28;20147;-74
2024/03/18 08:00:25;;;;;;;4.25;0.47;;;;;;;-1.38;100.00;102273.88;5057425;28;20518;-74
2024/03/18 08:02:50;;;;;;;3.03;0.28;;;;;;;-1.31;100.00;102269.09;5073946;28;20032;-74
2024/03/18 08:05:17;;;;;;;1.85;0.30;;;;;;;-1.35;100.00;102267.59;5057847;28;20031;-74
2024/03/18 08:07:42;;;;;;;3.08;0.22;;;;;;;-1.26;100.00;102259.13;5042393;28;20044;-73
2024/03/18 08:10:09;;;;;;;4.60;0.45;;;;;;;-0.95;100.00;102258.25;5075342;28;20430;-74
2024/03/18 08:12:34;;;;;;;1.40;0.25;;;;;;;-1.08;100.00;102271.31;5059074;28;20025;-73
2024/03/18 08:15:00;;;;;;;2.08;0.30;;;;;;;-1.31;100.00;102253.25;5058610;28;20055;-72
2024/03/18 08:17:26;;;;;;;2.78;0.47;;;;;;;-1.03;100.00;102274.50;5058120;28;20029;-74
2024/03/18 08:19:51;;;;;;;1.80;0.40;;;;;;;-1.16;100.00;102238.31;5040790;28;20037;-74
2024/03/18 08:22:16;;;;;;;2.45;0.43;;;;;;;-0.88;100.00;102262.22;5057071;28;20055;-75
2024/03/18 08:24:49;;;;;;;2.90;0.50;;;;;;;-0.78;100.00;102281.03;5058529;28;20040;-74
2024/03/18 08:27:15;;;;;;;7.20;0.60;;;;;;;-0.73;100.00;102277.19;5057884;28;20552;-73
2024/03/18 08:29:40;;;;;;;5.57;0.77;;;;;;;-0.70;100.00;102270.84;5057770;28;20064;-73
2024/03/18 08:32:07;;;;;;;1.13;0.35;;;;;;;-0.61;100.00;102270.31;5058514;28;20120;-74
2024/03/18 08:34:32;;;;;;;1.35;0.30;;;;;;;-0.72;100.00;102270.97;5059291;28;20029;-74
2024/03/18 08:37:00;;;;;;;4.70;0.52;;;;;;;-0.64;100.00;102262.56;5059358;28;20116;-74
2024/03/18 08:39:26;;;;;;;0.95;0.30;;;;;;;-0.93;100.00;102237.84;5058053;28;20029;-73
2024/03/18 08:41:51;;;;;;;3.38;0.43;;;;;;;-0.59;100.00;102249.09;5057301;28;20117;-76
2024/03/18 08:44:18;;;;;;;0.80;0.35;;;;;;;-0.19;100.00;102268.69;5058426;28;20040;-76
2024/03/18 08:46:44;;;;;;;4.43;0.50;;;;;;;-0.33;100.00;102271.31;5039757;28;20064;-73
2024/03/18 08:49:13;;;;;;;0.88;0.30;;;;;;;-0.66;100.00;102240.69;5058446;28;20483;-75
2024/03/18 08:51:40;;;;;;;2.50;0.63;;;;;;;-0.32;100.00;102263.31;5073882;28;20112;-75
2024/03/18 08:54:07;;;;;;;2.65;0.57;;;;;;;-0.25;100.00;102271.72;5058286;28;20021;-75
2024/03/18 08:56:32;;;;;;;2.70;0.50;;;;;;;-0.31;100.00;102275.56;5040787;28;20380;-75
2024/03/18 08:58:58;;;;;;;2.88;0.52;;;;;;;-0.28;100.00;102270.09;5056542;28;20059;-73
2024/03/18 09:01:23;;;;;;;1.63;0.40;;;;;;;-0.49;100.00;102252.91;5040562;28;20502;-75
2024/03/18 09:03:49;;;;;;;1.70;0.40;;;;;;;-0.41;100.00;102276.22;5072604;28;20025;-73
2024/03/18 09:06:15;;;;;;;1.45;0.40;;;;;;;-0.37;100.00;102251.28;5058197;28;20051;-74
2024/03/18 09:08:45;;;;;;;3.25;0.40;;;;;;;-0.17;100.00;102282.66;5056803;28;20021;-74
2024/03/18 09:11:10;;;;;;;1.95;0.50;;;;;;;-0.19;100.00;102270.50;5057440;28;20029;-73
2024/03/18 09:13:36;;;;;;;3.08;0.40;;;;;;;-0.10;100.00;102270.78;5057299;28;20086;-74
2024/03/18 09:16:02;;;;;;;2.20;0.43;;;;;;;0.05;100.00;102260.19;5058116;28;20078;-74
2024/03/18 09:18:28;;;;;;;3.05;0.45;;;;;;;0.03;100.00;102262.06;5057696;28;20040;-72
2024/03/18 09:20:56;;;;;;;4.70;0.22;;;;;;;-0.33;100.00;102231.63;5056941;28;20036;-74
2024/03/18 09:23:22;;;;;;;1.95;0.50;;;;;;;-0.07;100.00;102252.06;5056709;28;20029;-74
2024/03/18 09:25:50;;;;;;;2.70;0.63;;;;;;;0.10;100.00;102255.47;5040437;28;20083;-74
2024/03/18 09:28:15;;;;;;;1.60;0.40;;;;;;;0.31;100.00;102261.22;5038762;28;20029;-73
2024/03/18 09:30:42;;;;;;;3.50;0.45;;;;;;;0.74;100.00;102253.19;5072433;28;20025;-74
2024/03/18 09:33:08;;;;;;;6.15;0.50;;;;;;;0.88;100.00;102261.06;5039107;28;20033;-73
2024/03/18 09:35:34;;;;;;;1.95;0.32;;;;;;;0.98;100.00;102262.16;5057453;28;20029;-73
2024/03/18 09:38:00;;;;;;;4.30;0.40;;;;;;;1.07;100.00;102250.97;5057695;28;20021;-74
2024/03/18 09:40:29;;;;;;;3.35;0.38;;;;;;;0.70;100.00;102255.19;5057001;28;20035;-73
2024/03/18 09:42:54;;;;;;;4.03;0.50;;;;;;;0.65;100.00;102215.72;5055003;28;20025;-73
2024/03/18 09:45:22;;;;;;;2.80;0.40;;;;;;;0.93;100.00;102235.97;5071421;28;20029;-74
2024/03/18 09:47:48;;;;;;;1.88;0.30;;;;;;;0.74;100.00;102242.59;5054720;28;20080;-74
2024/03/18 09:50:16;;;;;;;3.65;0.30;;;;;;;0.81;100.00;102241.22;5054449;28;20047;-74
2024/03/18 09:52:43;;;;;;;3.03;0.40;;;;;;;1.22;100.00;102241.13;5071598;28;20029;-73
2024/03/18 09:55:20;;;;;;;2.90;0.80;;;;;;;1.15;100.00;102221.28;5058879;28;20491;-78
2024/03/18 09:57:46;;;;;;;2.03;0.50;;;;;;;1.06;100.00;102205.97;5057425;28;20558;-74
2024/03/18 10:00:12;;;;;;;2.63;0.40;;;;;;;1.20;100.00;102224.47;5057274;28;20139;-73
2024/03/18 10:02:38;;;;;;;2.55;0.40;;;;;;;1.58;100.00;102218.34;5071338;28;20059;-74
2024/03/18 10:05:09;;;;;;;3.60;0.50;;;;;;;1.99;100.00;102238.53;5056080;28;20079;-75
2024/03/18 10:07:34;;;;;;;4.32;0.52;;;;;;;1.85;100.00;102205.84;5055983;28;20029;-73
2024/03/18 10:10:00;;;;;;;3.50;0.35;;;;;;;1.39;100.00;102210.81;5056012;28;20379;-73
2024/03/18 10:12:25;;;;;;;6.25;0.57;;;;;;;1.74;100.00;102237.56;5054551;28;20029;-73
2024/03/18 10:14:51;;;;;;;0.70;0.20;;;;;;;1.47;100.00;102227.06;5055905;28;20078;-74
2024/03/18 10:17:18;;;;;;;3.88;0.40;;;;;;;1.60;100.00;102229.72;5054546;28;20029;-73
2024/03/18 10:19:46;;;;;;;3.28;0.40;;;;;;;1.41;100.00;102228.31;5055939;28;20440;-73
2024/03/18 10:22:13;;;;;;;2.88;0.43;;;;;;;1.55;100.00;102229.19;5055160;28;20109;-74
2024/03/18 10:24:40;;;;;;;2.83;0.50;;;;;;;1.78;100.00;102217.81;5055938;28;20032;-74
2024/03/18 10:27:07;;;;;;;3.00;0.52;;;;;;;2.32;100.00;102230.81;5057111;28;20032;-74
2024/03/18 10:29:32;;;;;;;2.72;0.47;;;;;;;2.04;100.00;102202.72;5038480;28;20060;-75
2024/03/18 10:31:58;;;;;;;2.80;0.40;;;;;;;1.91;100.00;102216.97;5054970;28;20029;-73
2024/03/18 10:34:24;;;;;;;1.95;0.40;;;;;;;1.90;100.00;102233.84;5056871;28;20029;-74
2024/03/18 10:36:59;;;;;;;3.38;0.38;;;;;;;1.61;100.00;102192.47;5056199;28;20075;-74
2024/03/18 10:39:50;;;;;;;3.40;0.38;;;;;;;2.05;100.00;102215.06;5058327;28;20099;-74
2024/03/18 10:42:16;;;;;;;2.33;0.50;;;;;;;2.49;100.00;102221.63;5057339;28;20040;-74
2024/03/18 10:44:50;;;;;;;1.65;0.30;;;;;;;2.40;100.00;102189.56;5040896;28;20029;-74
2024/03/18 10:47:18;;;;;;;1.85;0.50;;;;;;;2.46;100.00;102223.66;5062556;28;20025;-73
2024/03/18 10:49:44;;;;;;;5.70;0.60;;;;;;;2.39;100.00;102228.56;5061348;28;20029;-73
2024/03/18 10:52:11;;;;;;;3.58;0.60;;;;;;;2.52;100.00;102204.63;5062890;28;20035;-74
2024/03/18 10:54:37;;;;;;;6.45;0.60;;;;;;;2.73;100.00;102218.97;5062254;28;20037;-74
2024/03/18 10:57:04;;;;;;;4.00;0.43;;;;;;;2.58;100.00;102215.63;5063357;28;20091;-74
2024/03/18 10:59:30;;;;;;;2.22;0.35;;;;;;;3.00;100.00;102215.22;5062800;28;20534;-74
2024/03/18 11:01:56;;;;;;;2.70;1.10;;;;;;;2.94;100.00;102221.81;5078956;28;20127;-74
2024/03/18 11:04:23;;;;;;;5.28;0.60;;;;;;;2.81;100.00;102189.16;5061398;28;20067;-74
2024/03/18 11:06:49;;;;;;;6.70;0.63;;;;;;;2.81;100.00;102194.47;5045502;28;20093;-74
2024/03/18 11:09:19;;;;;;;5.63;0.70;;;;;;;3.35;100.00;102214.38;5079456;28;20434;-74
2024/03/18 11:11:45;;;;;;;7.03;0.80;;;;;;;3.37;100.00;102169.84;5045627;28;20025;-73
2024/03/18 11:14:11;;;;;;;3.75;0.80;;;;;;;3.82;100.00;102199.19;5064038;28;20021;-74
2024/03/18 11:16:43;;;;;;;6.28;0.60;;;;;;;3.97;100.00;102208.59;5060452;28;20035;-73
2024/03/18 11:19:17;;;;;;;3.65;0.60;;;;;;;3.85;100.00;102212.25;5059075;28;20031;-74
2024/03/18 11:21:43;;;;;;;1.98;0.50;;;;;;;3.36;100.00;102206.25;5042597;28;20040;-73